createdAt,value
2017-08-06T00:00:34.947Z,0
2017-08-06T00:01:34.805Z,0
2017-08-06T00:02:34.804Z,0
2017-08-06T00:03:35.111Z,0
2017-08-06T00:04:35.112Z,0
2017-08-06T00:05:35.163Z,0
2017-08-06T00:06:35.162Z,0
2017-08-06T00:07:35.141Z,0
2017-08-06T00:08:34.836Z,0
2017-08-06T00:09:34.575Z,0
2017-08-06T00:10:35.189Z,0
2017-08-06T00:11:35.211Z,0
2017-08-06T00:12:35.247Z,0
2017-08-06T00:13:35.264Z,0
2017-08-06T00:14:35.161Z,0
2017-08-06T00:15:35.007Z,0
2017-08-06T00:16:35.023Z,0
2017-08-06T00:17:35.045Z,0
2017-08-06T00:18:35.382Z,0
2017-08-06T00:19:35.412Z,0
2017-08-06T00:20:35.425Z,0
2017-08-06T00:21:35.462Z,0
2017-08-06T00:22:35.493Z,0
2017-08-06T00:23:35.502Z,0
2017-08-06T00:24:35.218Z,0
2017-08-06T00:25:35.573Z,0
2017-08-06T00:26:48.316Z,0
2017-08-06T00:27:34.656Z,0
2017-08-06T00:28:35.633Z,0
2017-08-06T00:29:35.653Z,0
2017-08-06T00:30:35.687Z,0
2017-08-06T00:31:35.705Z,0
2017-08-06T00:32:35.421Z,0
2017-08-06T00:33:35.842Z,0
2017-08-06T00:34:35.786Z,0
2017-08-06T00:35:35.797Z,0
2017-08-06T00:36:35.821Z,0
2017-08-06T00:37:35.851Z,0
2017-08-06T00:38:35.876Z,0
2017-08-06T00:39:35.595Z,0
2017-08-06T00:40:35.922Z,0
2017-08-06T00:41:35.948Z,0
2017-08-06T00:42:35.974Z,0
2017-08-06T00:43:36.018Z,0
2017-08-06T00:44:36.062Z,0
2017-08-06T00:45:35.732Z,0
2017-08-06T00:46:35.856Z,0
2017-08-06T00:47:36.124Z,0
2017-08-06T00:48:36.120Z,0
2017-08-06T00:49:35.824Z,0
2017-08-06T00:50:35.866Z,0
2017-08-06T00:51:36.059Z,0
2017-08-06T00:52:35.907Z,0
2017-08-06T00:53:36.239Z,0
2017-08-06T00:54:36.270Z,0
2017-08-06T00:55:36.289Z,0
2017-08-06T00:56:36.315Z,0
2017-08-06T00:57:36.053Z,0
2017-08-06T00:58:36.499Z,0
2017-08-06T00:59:36.492Z,0
2017-08-06T01:00:36.105Z,0
2017-08-06T01:01:36.123Z,0
2017-08-06T01:02:36.480Z,0
2017-08-06T01:03:36.501Z,0
2017-08-06T01:04:36.516Z,0
2017-08-06T01:05:36.528Z,0
2017-08-06T01:06:36.269Z,0
2017-08-06T01:07:35.939Z,0
2017-08-06T01:08:36.608Z,0
2017-08-06T01:09:36.778Z,0
2017-08-06T01:10:36.333Z,0
2017-08-06T01:11:36.678Z,0
2017-08-06T01:12:36.528Z,0
2017-08-06T01:13:36.948Z,0
2017-08-06T01:14:36.949Z,0
2017-08-06T01:15:36.563Z,0
2017-08-06T01:16:36.795Z,0
2017-08-06T01:17:36.826Z,0
2017-08-06T01:18:36.955Z,0
2017-08-06T01:19:36.714Z,0
2017-08-06T01:20:36.580Z,0
2017-08-06T01:21:35.977Z,0
2017-08-06T01:22:36.008Z,0
2017-08-06T01:23:36.981Z,0
2017-08-06T01:24:37.010Z,0
2017-08-06T01:25:37.253Z,0
2017-08-06T01:26:37.038Z,0
2017-08-06T01:27:36.743Z,0
2017-08-06T01:28:36.764Z,0
2017-08-06T01:29:37.152Z,0
2017-08-06T01:30:37.170Z,0
2017-08-06T01:31:37.160Z,0
2017-08-06T01:32:37.181Z,0
2017-08-06T01:33:37.207Z,0
2017-08-06T01:34:36.941Z,0
2017-08-06T01:35:37.248Z,0
2017-08-06T01:36:37.289Z,0
2017-08-06T01:37:36.983Z,0
2017-08-06T01:38:37.322Z,0
2017-08-06T01:39:36.718Z,0
2017-08-06T01:40:37.075Z,0
2017-08-06T01:41:37.395Z,0
2017-08-06T01:42:36.788Z,0
2017-08-06T01:43:37.435Z,0
2017-08-06T01:44:37.478Z,0
2017-08-06T01:45:37.173Z,0
2017-08-06T01:46:37.201Z,0
2017-08-06T01:47:37.536Z,0
2017-08-06T01:48:37.611Z,0
2017-08-06T01:49:37.587Z,0
2017-08-06T01:50:37.630Z,0
2017-08-06T01:51:37.449Z,0
2017-08-06T01:52:37.653Z,0
2017-08-06T01:53:37.684Z,0
2017-08-06T01:54:37.755Z,0
2017-08-06T01:55:37.752Z,0
2017-08-06T01:56:37.537Z,0
2017-08-06T01:57:37.460Z,0
2017-08-06T01:58:37.800Z,0
2017-08-06T01:59:37.822Z,0
2017-08-06T02:00:37.844Z,0
2017-08-06T02:01:38.005Z,0
2017-08-06T02:02:36.632Z,0
2017-08-06T02:03:37.727Z,0
2017-08-06T02:04:37.943Z,0
2017-08-06T02:05:37.083Z,0
2017-08-06T02:06:37.998Z,0
2017-08-06T02:07:38.010Z,0
2017-08-06T02:08:37.722Z,0
2017-08-06T02:09:37.517Z,0
2017-08-06T02:10:38.167Z,0
2017-08-06T02:11:38.106Z,0
2017-08-06T02:12:38.132Z,0
2017-08-06T02:13:37.836Z,0
2017-08-06T02:14:37.870Z,0
2017-08-06T02:15:38.509Z,0
2017-08-06T02:16:37.916Z,0
2017-08-06T02:17:38.243Z,0
2017-08-06T02:18:37.962Z,0
2017-08-06T02:19:37.982Z,0
2017-08-06T02:20:38.005Z,0
2017-08-06T02:21:38.340Z,0
2017-08-06T02:22:38.368Z,0
2017-08-06T02:23:38.392Z,0
2017-08-06T02:24:37.789Z,0
2017-08-06T02:25:38.438Z,0
2017-08-06T02:26:38.155Z,0
2017-08-06T02:27:38.481Z,0
2017-08-06T02:28:38.511Z,0
2017-08-06T02:29:38.543Z,0
2017-08-06T02:30:38.592Z,0
2017-08-06T02:31:38.580Z,0
2017-08-06T02:32:38.612Z,0
2017-08-06T02:33:38.629Z,0
2017-08-06T02:34:38.648Z,0
2017-08-06T02:35:38.672Z,0
2017-08-06T02:36:38.704Z,0
2017-08-06T02:37:38.724Z,0
2017-08-06T02:38:38.750Z,0
2017-08-06T02:39:38.451Z,0
2017-08-06T02:40:38.487Z,0
2017-08-06T02:41:38.814Z,0
2017-08-06T02:42:38.841Z,0
2017-08-06T02:43:38.868Z,0
2017-08-06T02:44:38.901Z,0
2017-08-06T02:45:38.592Z,0
2017-08-06T02:46:38.306Z,0
2017-08-06T02:47:38.639Z,0
2017-08-06T02:48:38.975Z,0
2017-08-06T02:49:38.703Z,0
2017-08-06T02:50:38.403Z,0
2017-08-06T02:51:39.057Z,0
2017-08-06T02:52:38.544Z,0
2017-08-06T02:53:38.467Z,0
2017-08-06T02:54:38.813Z,0
2017-08-06T02:55:39.139Z,0
2017-08-06T02:56:39.172Z,0
2017-08-06T02:57:39.194Z,0
2017-08-06T02:58:39.216Z,0
2017-08-06T02:59:39.235Z,0
2017-08-06T03:00:39.268Z,0
2017-08-06T03:01:39.290Z,0
2017-08-06T03:02:39.002Z,0
2017-08-06T03:03:38.707Z,0
2017-08-06T03:04:38.730Z,0
2017-08-06T03:05:39.061Z,0
2017-08-06T03:06:38.459Z,0
2017-08-06T03:07:39.105Z,0
2017-08-06T03:08:39.546Z,0
2017-08-06T03:09:39.478Z,0
2017-08-06T03:10:39.184Z,0
2017-08-06T03:11:39.517Z,0
2017-08-06T03:12:39.540Z,0
2017-08-06T03:13:38.929Z,0
2017-08-06T03:14:38.970Z,0
2017-08-06T03:15:39.614Z,0
2017-08-06T03:16:39.397Z,0
2017-08-06T03:17:39.664Z,0
2017-08-06T03:18:39.682Z,0
2017-08-06T03:19:39.848Z,0
2017-08-06T03:20:39.523Z,0
2017-08-06T03:21:39.844Z,0
2017-08-06T03:22:39.771Z,0
2017-08-06T03:23:40.070Z,0
2017-08-06T03:24:39.990Z,0
2017-08-06T03:25:39.848Z,0
2017-08-06T03:26:39.868Z,0
2017-08-06T03:27:39.672Z,0
2017-08-06T03:28:39.995Z,0
2017-08-06T03:29:40.034Z,0
2017-08-06T03:30:39.971Z,0
2017-08-06T03:31:39.668Z,0
2017-08-06T03:32:40.009Z,0
2017-08-06T03:33:40.027Z,0
2017-08-06T03:34:39.733Z,0
2017-08-06T03:35:40.075Z,0
2017-08-06T03:36:40.111Z,0
2017-08-06T03:37:40.116Z,0
2017-08-06T03:38:39.828Z,0
2017-08-06T03:39:39.679Z,0
2017-08-06T03:40:40.190Z,0
2017-08-06T03:41:39.900Z,0
2017-08-06T03:42:40.237Z,0
2017-08-06T03:43:40.260Z,0
2017-08-06T03:44:39.971Z,0
2017-08-06T03:45:40.311Z,0
2017-08-06T03:46:40.329Z,0
2017-08-06T03:47:40.380Z,0
2017-08-06T03:48:40.376Z,0
2017-08-06T03:49:40.400Z,0
2017-08-06T03:50:40.132Z,0
2017-08-06T03:51:40.446Z,0
2017-08-06T03:52:40.162Z,0
2017-08-06T03:53:40.490Z,0
2017-08-06T03:54:39.882Z,0
2017-08-06T03:55:40.538Z,0
2017-08-06T03:56:40.243Z,0
2017-08-06T03:57:40.590Z,0
2017-08-06T03:58:40.612Z,0
2017-08-06T03:59:39.997Z,0
2017-08-06T04:00:39.723Z,0
2017-08-06T04:01:40.679Z,0
2017-08-06T04:02:40.388Z,0
2017-08-06T04:03:40.410Z,0
2017-08-06T04:04:40.743Z,0
2017-08-06T04:05:40.547Z,0
2017-08-06T04:06:40.790Z,0
2017-08-06T04:07:40.497Z,0
2017-08-06T04:08:40.845Z,0
2017-08-06T04:09:40.863Z,0
2017-08-06T04:10:40.268Z,0
2017-08-06T04:11:40.681Z,0
2017-08-06T04:12:40.625Z,0
2017-08-06T04:13:40.840Z,0
2017-08-06T04:14:41.049Z,0
2017-08-06T04:15:40.680Z,0
2017-08-06T04:16:41.020Z,0
2017-08-06T04:17:40.732Z,0
2017-08-06T04:18:41.074Z,0
2017-08-06T04:19:40.472Z,0
2017-08-06T04:20:41.109Z,0
2017-08-06T04:21:41.134Z,0
2017-08-06T04:22:41.166Z,0
2017-08-06T04:23:41.290Z,0
2017-08-06T04:24:40.960Z,0
2017-08-06T04:25:41.230Z,0
2017-08-06T04:26:40.935Z,0
2017-08-06T04:27:40.954Z,0
2017-08-06T04:28:41.295Z,0
2017-08-06T04:29:41.010Z,0
2017-08-06T04:30:41.023Z,0
2017-08-06T04:31:41.050Z,0
2017-08-06T04:32:41.085Z,0
2017-08-06T04:33:41.422Z,0
2017-08-06T04:34:41.124Z,0
2017-08-06T04:35:41.456Z,0
2017-08-06T04:36:41.483Z,0
2017-08-06T04:37:41.511Z,0
2017-08-06T04:38:41.216Z,0
2017-08-06T04:39:41.554Z,0
2017-08-06T04:40:41.582Z,5
2017-08-06T04:41:41.601Z,5
2017-08-06T04:42:41.625Z,0
2017-08-06T04:43:41.641Z,0
2017-08-06T04:44:41.347Z,0
2017-08-06T04:45:41.705Z,0
2017-08-06T04:46:41.714Z,0
2017-08-06T04:47:41.731Z,0
2017-08-06T04:48:41.753Z,0
2017-08-06T04:49:41.782Z,5
2017-08-06T04:50:41.170Z,5
2017-08-06T04:51:41.606Z,0
2017-08-06T04:52:41.842Z,0
2017-08-06T04:53:41.980Z,0
2017-08-06T04:54:41.601Z,0
2017-08-06T04:55:41.925Z,0
2017-08-06T04:56:41.984Z,0
2017-08-06T04:57:41.962Z,0
2017-08-06T04:58:42.014Z,0
2017-08-06T04:59:41.691Z,0
2017-08-06T05:00:42.031Z,0
2017-08-06T05:01:42.058Z,0
2017-08-06T05:02:42.077Z,0
2017-08-06T05:03:42.107Z,0
2017-08-06T05:04:41.805Z,0
2017-08-06T05:05:42.142Z,0
2017-08-06T05:06:42.166Z,0
2017-08-06T05:07:41.875Z,5
2017-08-06T05:08:41.900Z,5
2017-08-06T05:09:41.919Z,5
2017-08-06T05:10:41.939Z,5
2017-08-06T05:11:42.284Z,5
2017-08-06T05:12:42.320Z,5
2017-08-06T05:13:42.016Z,5
2017-08-06T05:14:42.355Z,5
2017-08-06T05:15:42.076Z,5
2017-08-06T05:16:42.395Z,5
2017-08-06T05:17:42.436Z,5
2017-08-06T05:18:42.120Z,5
2017-08-06T05:19:42.464Z,5
2017-08-06T05:20:42.486Z,5
2017-08-06T05:21:42.517Z,5
2017-08-06T05:22:42.220Z,5
2017-08-06T05:23:42.552Z,5
2017-08-06T05:24:42.581Z,5
2017-08-06T05:25:42.287Z,5
2017-08-06T05:26:42.622Z,5
2017-08-06T05:27:42.640Z,5
2017-08-06T05:28:42.663Z,5
2017-08-06T05:29:42.693Z,5
2017-08-06T05:30:42.722Z,5
2017-08-06T05:31:42.112Z,5
2017-08-06T05:32:42.768Z,5
2017-08-06T05:33:42.464Z,5
2017-08-06T05:34:42.800Z,5
2017-08-06T05:35:42.831Z,5
2017-08-06T05:36:42.535Z,5
2017-08-06T05:37:42.889Z,5
2017-08-06T05:38:42.899Z,5
2017-08-06T05:39:42.915Z,5
2017-08-06T05:40:42.941Z,5
2017-08-06T05:41:42.650Z,10
2017-08-06T05:42:42.677Z,10
2017-08-06T05:43:42.692Z,10
2017-08-06T05:44:43.045Z,10
2017-08-06T05:45:42.762Z,10
2017-08-06T05:46:43.086Z,5
2017-08-06T05:47:43.104Z,5
2017-08-06T05:48:43.121Z,5
2017-08-06T05:49:43.152Z,5
2017-08-06T05:50:43.002Z,5
2017-08-06T05:51:43.205Z,5
2017-08-06T05:52:43.215Z,5
2017-08-06T05:53:43.241Z,5
2017-08-06T05:54:42.967Z,5
2017-08-06T05:55:42.972Z,5
2017-08-06T05:56:43.310Z,5
2017-08-06T05:57:43.026Z,5
2017-08-06T05:58:43.353Z,5
2017-08-06T05:59:43.394Z,5
2017-08-06T06:00:43.416Z,5
2017-08-06T06:01:43.102Z,5
2017-08-06T06:02:43.179Z,5
2017-08-06T06:03:43.468Z,5
2017-08-06T06:04:43.486Z,5
2017-08-06T06:05:43.199Z,5
2017-08-06T06:06:43.658Z,5
2017-08-06T06:07:43.249Z,5
2017-08-06T06:08:43.581Z,5
2017-08-06T06:09:43.603Z,5
2017-08-06T06:10:43.691Z,5
2017-08-06T06:11:43.697Z,5
2017-08-06T06:12:43.689Z,5
2017-08-06T06:13:43.698Z,5
2017-08-06T06:14:43.409Z,5
2017-08-06T06:15:43.857Z,5
2017-08-06T06:16:43.765Z,5
2017-08-06T06:17:43.656Z,5
2017-08-06T06:18:43.812Z,5
2017-08-06T06:19:43.902Z,5
2017-08-06T06:20:43.536Z,5
2017-08-06T06:21:43.880Z,5
2017-08-06T06:22:44.100Z,5
2017-08-06T06:23:43.928Z,5
2017-08-06T06:24:43.957Z,5
2017-08-06T06:25:43.849Z,5
2017-08-06T06:26:43.677Z,5
2017-08-06T06:27:43.980Z,5
2017-08-06T06:28:44.046Z,5
2017-08-06T06:29:44.060Z,5
2017-08-06T06:30:44.294Z,5
2017-08-06T06:31:43.170Z,5
2017-08-06T06:32:44.374Z,5
2017-08-06T06:33:43.741Z,5
2017-08-06T06:34:44.269Z,5
2017-08-06T06:35:44.199Z,5
2017-08-06T06:36:44.264Z,5
2017-08-06T06:37:44.254Z,5
2017-08-06T06:38:44.281Z,5
2017-08-06T06:39:44.096Z,5
2017-08-06T06:40:44.008Z,5
2017-08-06T06:41:44.333Z,5
2017-08-06T06:42:43.738Z,5
2017-08-06T06:43:44.067Z,5
2017-08-06T06:44:43.452Z,10
2017-08-06T06:45:43.588Z,10
2017-08-06T06:46:44.459Z,10
2017-08-06T06:47:44.483Z,5
2017-08-06T06:48:44.499Z,5
2017-08-06T06:49:44.267Z,5
2017-08-06T06:50:44.532Z,5
2017-08-06T06:51:44.568Z,10
2017-08-06T06:52:44.318Z,10
2017-08-06T06:53:44.611Z,10
2017-08-06T06:54:44.319Z,10
2017-08-06T06:55:44.652Z,5
2017-08-06T06:56:44.683Z,5
2017-08-06T06:57:44.436Z,5
2017-08-06T06:58:44.408Z,5
2017-08-06T06:59:44.120Z,5
2017-08-06T07:00:44.771Z,5
2017-08-06T07:01:44.884Z,5
2017-08-06T07:02:44.519Z,5
2017-08-06T07:03:44.831Z,10
2017-08-06T07:04:44.855Z,10
2017-08-06T07:05:44.882Z,5
2017-08-06T07:06:44.903Z,5
2017-08-06T07:07:44.612Z,5
2017-08-06T07:08:44.320Z,5
2017-08-06T07:09:44.970Z,10
2017-08-06T07:10:44.997Z,10
2017-08-06T07:11:44.709Z,10
2017-08-06T07:12:44.726Z,10
2017-08-06T07:13:45.065Z,15
2017-08-06T07:14:45.094Z,10
2017-08-06T07:15:45.108Z,10
2017-08-06T07:16:44.927Z,10
2017-08-06T07:17:44.843Z,10
2017-08-06T07:18:44.864Z,10
2017-08-06T07:19:45.216Z,10
2017-08-06T07:20:45.226Z,10
2017-08-06T07:21:45.251Z,10
2017-08-06T07:22:44.954Z,10
2017-08-06T07:23:45.347Z,10
2017-08-06T07:24:45.002Z,10
2017-08-06T07:25:45.032Z,15
2017-08-06T07:26:45.362Z,25
2017-08-06T07:27:45.390Z,30
2017-08-06T07:28:45.407Z,25
2017-08-06T07:29:45.438Z,15
2017-08-06T07:30:45.138Z,15
2017-08-06T07:31:45.476Z,20
2017-08-06T07:32:45.184Z,25
2017-08-06T07:33:45.214Z,25
2017-08-06T07:34:45.669Z,20
2017-08-06T07:35:45.568Z,20
2017-08-06T07:36:45.278Z,15
2017-08-06T07:37:45.397Z,15
2017-08-06T07:38:45.009Z,20
2017-08-06T07:39:45.661Z,35
2017-08-06T07:40:45.370Z,35
2017-08-06T07:41:45.403Z,30
2017-08-06T07:42:45.422Z,25
2017-08-06T07:43:45.440Z,20
2017-08-06T07:44:45.794Z,15
2017-08-06T07:45:45.856Z,10
2017-08-06T07:46:45.516Z,5
2017-08-06T07:47:45.851Z,5
2017-08-06T07:48:45.558Z,10
2017-08-06T07:49:45.585Z,10
2017-08-06T07:50:45.612Z,10
2017-08-06T07:51:46.074Z,10
2017-08-06T07:52:45.656Z,10
2017-08-06T07:53:46.098Z,10
2017-08-06T07:54:46.017Z,15
2017-08-06T07:55:46.139Z,20
2017-08-06T07:56:46.172Z,15
2017-08-06T07:57:45.453Z,25
2017-08-06T07:58:45.801Z,30
2017-08-06T07:59:46.135Z,25
2017-08-06T08:00:45.328Z,20
2017-08-06T08:01:45.237Z,15
2017-08-06T08:02:45.885Z,15
2017-08-06T08:03:46.229Z,15
2017-08-06T08:04:46.458Z,10
2017-08-06T08:05:46.474Z,10
2017-08-06T08:06:45.984Z,10
2017-08-06T08:07:46.317Z,10
2017-08-06T08:08:46.339Z,10
2017-08-06T08:09:46.368Z,10
2017-08-06T08:10:46.285Z,10
2017-08-06T08:11:46.416Z,5
2017-08-06T08:12:46.130Z,10
2017-08-06T08:13:46.150Z,10
2017-08-06T08:14:45.850Z,10
2017-08-06T08:15:45.651Z,10
2017-08-06T08:16:46.207Z,10
2017-08-06T08:17:46.565Z,10
2017-08-06T08:18:46.319Z,10
2017-08-06T08:19:46.678Z,10
2017-08-06T08:20:46.623Z,10
2017-08-06T08:21:46.159Z,15
2017-08-06T08:22:46.700Z,20
2017-08-06T08:23:46.704Z,25
2017-08-06T08:24:46.721Z,25
2017-08-06T08:25:46.755Z,20
2017-08-06T08:26:46.797Z,15
2017-08-06T08:27:46.808Z,15
2017-08-06T08:28:46.819Z,20
2017-08-06T08:29:46.629Z,25
2017-08-06T08:30:46.232Z,25
2017-08-06T08:31:46.311Z,15
2017-08-06T08:32:46.706Z,10
2017-08-06T08:33:46.644Z,10
2017-08-06T08:34:46.373Z,10
2017-08-06T08:35:46.987Z,10
2017-08-06T08:36:47.030Z,10
2017-08-06T08:37:47.106Z,10
2017-08-06T08:38:47.119Z,10
2017-08-06T08:39:46.774Z,10
2017-08-06T08:40:46.918Z,15
2017-08-06T08:41:46.612Z,15
2017-08-06T08:42:47.161Z,15
2017-08-06T08:43:47.081Z,15
2017-08-06T08:44:46.894Z,15
2017-08-06T08:45:47.241Z,15
2017-08-06T08:46:46.625Z,15
2017-08-06T08:47:47.411Z,15
2017-08-06T08:48:46.993Z,15
2017-08-06T08:49:46.701Z,15
2017-08-06T08:50:47.040Z,15
2017-08-06T08:51:47.373Z,15
2017-08-06T08:52:47.407Z,15
2017-08-06T08:53:47.108Z,15
2017-08-06T08:54:47.452Z,15
2017-08-06T08:55:47.474Z,15
2017-08-06T08:56:47.278Z,15
2017-08-06T08:57:47.525Z,15
2017-08-06T08:58:47.241Z,15
2017-08-06T08:59:47.672Z,20
2017-08-06T09:00:47.279Z,25
2017-08-06T09:01:47.312Z,20
2017-08-06T09:02:47.334Z,20
2017-08-06T09:03:47.673Z,20
2017-08-06T09:04:47.382Z,25
2017-08-06T09:05:47.725Z,30
2017-08-06T09:06:47.430Z,35
2017-08-06T09:07:47.241Z,40
2017-08-06T09:08:47.801Z,45
2017-08-06T09:09:47.843Z,45
2017-08-06T09:10:47.536Z,40
2017-08-06T09:11:47.582Z,25
2017-08-06T09:12:47.261Z,30
2017-08-06T09:13:47.917Z,25
2017-08-06T09:14:47.954Z,20
2017-08-06T09:15:47.659Z,25
2017-08-06T09:16:47.994Z,25
2017-08-06T09:17:47.703Z,30
2017-08-06T09:18:47.732Z,30
2017-08-06T09:19:48.078Z,40
2017-08-06T09:20:47.798Z,55
2017-08-06T09:21:47.927Z,55
2017-08-06T09:22:47.832Z,55
2017-08-06T09:23:47.861Z,45
2017-08-06T09:24:47.890Z,30
2017-08-06T09:25:48.230Z,25
2017-08-06T09:26:47.955Z,20
2017-08-06T09:27:47.969Z,20
2017-08-06T09:28:48.478Z,20
2017-08-06T09:29:48.325Z,20
2017-08-06T09:30:47.723Z,30
2017-08-06T09:31:48.056Z,25
2017-08-06T09:32:48.412Z,25
2017-08-06T09:33:48.426Z,25
2017-08-06T09:34:48.456Z,25
2017-08-06T09:35:48.157Z,25
2017-08-06T09:36:48.187Z,20
2017-08-06T09:37:47.895Z,25
2017-08-06T09:38:48.235Z,25
2017-08-06T09:39:48.580Z,15
2017-08-06T09:40:47.340Z,15
2017-08-06T09:41:48.151Z,15
2017-08-06T09:42:48.669Z,15
2017-08-06T09:43:48.684Z,15
2017-08-06T09:44:48.706Z,15
2017-08-06T09:45:48.421Z,15
2017-08-06T09:46:48.126Z,10
2017-08-06T09:47:48.881Z,15
2017-08-06T09:48:48.978Z,15
2017-08-06T09:49:48.250Z,25
2017-08-06T09:50:48.544Z,35
2017-08-06T09:51:48.254Z,40
2017-08-06T09:52:48.920Z,30
2017-08-06T09:53:48.943Z,25
2017-08-06T09:54:48.961Z,20
2017-08-06T09:55:48.684Z,30
2017-08-06T09:56:48.728Z,20
2017-08-06T09:57:49.042Z,25
2017-08-06T09:58:49.081Z,25
2017-08-06T09:59:48.880Z,25
2017-08-06T10:00:49.287Z,20
2017-08-06T10:01:48.520Z,20
2017-08-06T10:02:49.175Z,25
2017-08-06T10:03:49.201Z,45
2017-08-06T10:04:48.596Z,45
2017-08-06T10:05:48.948Z,40
2017-08-06T10:06:49.286Z,35
2017-08-06T10:07:49.310Z,35
2017-08-06T10:08:49.347Z,40
2017-08-06T10:09:49.040Z,40
2017-08-06T10:10:49.067Z,40
2017-08-06T10:11:49.100Z,30
2017-08-06T10:12:49.130Z,30
2017-08-06T10:13:49.457Z,35
2017-08-06T10:14:49.273Z,30
2017-08-06T10:15:49.202Z,30
2017-08-06T10:16:49.219Z,30
2017-08-06T10:17:49.782Z,30
2017-08-06T10:18:49.277Z,25
2017-08-06T10:19:49.976Z,30
2017-08-06T10:20:49.816Z,25
2017-08-06T10:21:49.824Z,20
2017-08-06T10:22:49.508Z,15
2017-08-06T10:23:49.546Z,15
2017-08-06T10:24:49.751Z,15
2017-08-06T10:25:49.147Z,15
2017-08-06T10:26:49.981Z,10
2017-08-06T10:27:49.609Z,10
2017-08-06T10:28:49.963Z,15
2017-08-06T10:29:49.806Z,25
2017-08-06T10:30:49.600Z,25
2017-08-06T10:31:49.310Z,25
2017-08-06T10:32:49.981Z,25
2017-08-06T10:33:49.993Z,25
2017-08-06T10:34:50.144Z,25
2017-08-06T10:35:50.046Z,25
2017-08-06T10:36:50.082Z,25
2017-08-06T10:37:50.110Z,25
2017-08-06T10:38:50.127Z,25
2017-08-06T10:39:50.149Z,25
2017-08-06T10:40:50.184Z,25
2017-08-06T10:41:50.232Z,25
2017-08-06T10:42:50.120Z,30
2017-08-06T10:43:49.944Z,30
2017-08-06T10:44:49.969Z,30
2017-08-06T10:45:49.681Z,30
2017-08-06T10:46:49.712Z,30
2017-08-06T10:47:50.059Z,35
2017-08-06T10:48:49.764Z,35
2017-08-06T10:49:50.418Z,30
2017-08-06T10:50:50.449Z,35
2017-08-06T10:51:49.846Z,35
2017-08-06T10:52:50.191Z,35
2017-08-06T10:53:49.904Z,40
2017-08-06T10:54:50.566Z,35
2017-08-06T10:55:50.589Z,30
2017-08-06T10:56:49.676Z,35
2017-08-06T10:57:50.318Z,35
2017-08-06T10:58:50.674Z,30
2017-08-06T10:59:50.693Z,30
2017-08-06T11:00:50.407Z,30
2017-08-06T11:01:50.429Z,30
2017-08-06T11:02:50.457Z,35
2017-08-06T11:03:50.805Z,35
2017-08-06T11:04:50.519Z,40
2017-08-06T11:05:50.540Z,45
2017-08-06T11:06:50.881Z,50
2017-08-06T11:07:50.600Z,50
2017-08-06T11:08:50.624Z,45
2017-08-06T11:09:50.964Z,40
2017-08-06T11:10:50.362Z,40
2017-08-06T11:11:51.035Z,35
2017-08-06T11:12:51.047Z,40
2017-08-06T11:13:51.093Z,40
2017-08-06T11:14:50.787Z,40
2017-08-06T11:15:51.135Z,40
2017-08-06T11:16:50.526Z,40
2017-08-06T11:17:51.211Z,40
2017-08-06T11:18:51.219Z,40
2017-08-06T11:19:50.611Z,45
2017-08-06T11:20:50.958Z,45
2017-08-06T11:21:50.996Z,45
2017-08-06T11:22:51.330Z,55
2017-08-06T11:23:51.360Z,60
2017-08-06T11:24:51.383Z,65
2017-08-06T11:25:51.424Z,70
2017-08-06T11:26:51.125Z,80
2017-08-06T11:27:51.155Z,80
2017-08-06T11:28:50.872Z,75
2017-08-06T11:29:51.531Z,85
2017-08-06T11:30:51.243Z,85
2017-08-06T11:31:51.582Z,70
2017-08-06T11:32:51.298Z,70
2017-08-06T11:33:51.326Z,50
2017-08-06T11:34:51.353Z,50
2017-08-06T11:35:51.069Z,45
2017-08-06T11:36:51.733Z,35
2017-08-06T11:37:51.127Z,30
2017-08-06T11:38:51.790Z,25
2017-08-06T11:39:51.813Z,25
2017-08-06T11:40:51.527Z,25
2017-08-06T11:41:51.867Z,30
2017-08-06T11:42:51.592Z,20
2017-08-06T11:43:51.620Z,20
2017-08-06T11:44:51.682Z,20
2017-08-06T11:45:51.671Z,20
2017-08-06T11:46:51.706Z,25
2017-08-06T11:47:52.045Z,20
2017-08-06T11:48:52.077Z,25
2017-08-06T11:49:52.131Z,45
2017-08-06T11:50:51.499Z,20
2017-08-06T11:51:51.542Z,20
2017-08-06T11:52:52.193Z,20
2017-08-06T11:53:51.904Z,25
2017-08-06T11:54:52.255Z,40
2017-08-06T11:55:52.277Z,35
2017-08-06T11:56:52.312Z,40
2017-08-06T11:57:52.346Z,25
2017-08-06T11:58:51.737Z,25
2017-08-06T11:59:52.397Z,25
2017-08-06T12:00:52.525Z,25
2017-08-06T12:01:52.522Z,35
2017-08-06T12:02:52.169Z,30
2017-08-06T12:03:52.218Z,25
2017-08-06T12:04:52.554Z,45
2017-08-06T12:05:52.580Z,50
2017-08-06T12:06:52.606Z,50
2017-08-06T12:07:52.634Z,50
2017-08-06T12:08:52.668Z,55
2017-08-06T12:09:52.692Z,55
2017-08-06T12:10:52.725Z,55
2017-08-06T12:11:52.503Z,50
2017-08-06T12:12:52.149Z,55
2017-08-06T12:13:52.899Z,45
2017-08-06T12:14:52.205Z,50
2017-08-06T12:15:52.238Z,50
2017-08-06T12:16:52.356Z,50
2017-08-06T12:17:52.935Z,50
2017-08-06T12:18:52.332Z,55
2017-08-06T12:19:52.701Z,60
2017-08-06T12:20:52.708Z,60
2017-08-06T12:21:53.046Z,55
2017-08-06T12:22:52.761Z,55
2017-08-06T12:23:52.901Z,50
2017-08-06T12:24:52.841Z,60
2017-08-06T12:25:52.539Z,65
2017-08-06T12:26:52.885Z,60
2017-08-06T12:27:53.308Z,60
2017-08-06T12:28:53.265Z,60
2017-08-06T12:29:53.280Z,60
2017-08-06T12:30:53.324Z,60
2017-08-06T12:31:53.352Z,60
2017-08-06T12:32:53.193Z,45
2017-08-06T12:33:52.783Z,55
2017-08-06T12:34:53.120Z,40
2017-08-06T12:35:53.474Z,45
2017-08-06T12:36:53.187Z,65
2017-08-06T12:37:52.894Z,50
2017-08-06T12:38:53.248Z,40
2017-08-06T12:39:52.955Z,40
2017-08-06T12:40:52.997Z,45
2017-08-06T12:41:53.649Z,50
2017-08-06T12:42:53.697Z,50
2017-08-06T12:43:53.704Z,35
2017-08-06T12:44:53.735Z,30
2017-08-06T12:45:53.776Z,35
2017-08-06T12:46:53.170Z,35
2017-08-06T12:47:53.833Z,45
2017-08-06T12:48:53.859Z,55
2017-08-06T12:49:53.892Z,60
2017-08-06T12:50:53.610Z,60
2017-08-06T12:51:53.551Z,95
2017-08-06T12:52:54.000Z,100
2017-08-06T12:53:54.016Z,95
2017-08-06T12:54:54.055Z,90
2017-08-06T12:55:54.073Z,80
2017-08-06T12:56:53.473Z,65
2017-08-06T12:57:54.247Z,65
2017-08-06T12:58:53.852Z,60
2017-08-06T12:59:53.887Z,55
2017-08-06T13:00:53.598Z,60
2017-08-06T13:01:53.401Z,55
2017-08-06T13:02:54.291Z,55
2017-08-06T13:03:53.690Z,50
2017-08-06T13:04:53.845Z,40
2017-08-06T13:05:54.484Z,35
2017-08-06T13:06:54.094Z,50
2017-08-06T13:07:54.257Z,50
2017-08-06T13:08:54.158Z,35
2017-08-06T13:09:53.874Z,35
2017-08-06T13:10:53.906Z,35
2017-08-06T13:11:54.254Z,55
2017-08-06T13:12:53.966Z,55
2017-08-06T13:13:54.312Z,60
2017-08-06T13:14:54.026Z,60
2017-08-06T13:15:54.759Z,55
2017-08-06T13:16:54.767Z,60
2017-08-06T13:17:54.441Z,60
2017-08-06T13:18:54.470Z,55
2017-08-06T13:19:54.502Z,60
2017-08-06T13:20:54.852Z,55
2017-08-06T13:21:54.561Z,60
2017-08-06T13:22:55.002Z,60
2017-08-06T13:23:54.316Z,60
2017-08-06T13:24:55.068Z,55
2017-08-06T13:25:55.217Z,60
2017-08-06T13:26:55.043Z,70
2017-08-06T13:27:55.064Z,55
2017-08-06T13:28:54.788Z,55
2017-08-06T13:29:55.130Z,55
2017-08-06T13:30:55.162Z,60
2017-08-06T13:31:55.189Z,65
2017-08-06T13:32:55.220Z,65
2017-08-06T13:33:55.250Z,65
2017-08-06T13:34:54.978Z,60
2017-08-06T13:35:55.320Z,55
2017-08-06T13:36:55.120Z,65
2017-08-06T13:37:55.282Z,60
2017-08-06T13:38:55.090Z,60
2017-08-06T13:39:55.442Z,65
2017-08-06T13:40:55.473Z,65
2017-08-06T13:41:55.514Z,65
2017-08-06T13:42:55.534Z,65
2017-08-06T13:43:55.584Z,65
2017-08-06T13:44:55.312Z,65
2017-08-06T13:45:55.774Z,60
2017-08-06T13:46:55.101Z,65
2017-08-06T13:47:55.412Z,65
2017-08-06T13:48:55.767Z,70
2017-08-06T13:49:55.441Z,65
2017-08-06T13:50:55.792Z,60
2017-08-06T13:51:55.814Z,60
2017-08-06T13:52:54.934Z,60
2017-08-06T13:53:55.880Z,60
2017-08-06T13:54:55.590Z,60
2017-08-06T13:55:55.942Z,60
2017-08-06T13:56:55.656Z,55
2017-08-06T13:57:55.408Z,55
2017-08-06T13:58:55.972Z,55
2017-08-06T13:59:56.095Z,60
2017-08-06T14:00:56.163Z,55
2017-08-06T14:01:55.916Z,55
2017-08-06T14:02:55.853Z,55
2017-08-06T14:03:55.966Z,55
2017-08-06T14:04:56.235Z,65
2017-08-06T14:05:56.042Z,65
2017-08-06T14:06:56.637Z,65
2017-08-06T14:07:56.128Z,65
2017-08-06T14:08:56.363Z,60
2017-08-06T14:09:56.077Z,65
2017-08-06T14:10:56.099Z,65
2017-08-06T14:11:56.459Z,65
2017-08-06T14:12:56.477Z,65
2017-08-06T14:13:55.907Z,60
2017-08-06T14:14:56.401Z,60
2017-08-06T14:15:56.585Z,65
2017-08-06T14:16:56.613Z,65
2017-08-06T14:17:56.315Z,75
2017-08-06T14:18:56.035Z,75
2017-08-06T14:19:56.722Z,70
2017-08-06T14:20:56.212Z,50
2017-08-06T14:21:56.865Z,50
2017-08-06T14:22:56.890Z,60
2017-08-06T14:23:56.842Z,60
2017-08-06T14:24:56.862Z,65
2017-08-06T14:25:56.890Z,70
2017-08-06T14:26:57.071Z,65
2017-08-06T14:27:57.020Z,65
2017-08-06T14:28:57.027Z,60
2017-08-06T14:29:57.021Z,50
2017-08-06T14:30:57.159Z,40